sensor_id;sensor_type;location;lat;lon;timestamp;P1;durP1;ratioP1;P2;durP2;ratioP2
18399;SDS011;9326;49.468;11.008;2022-12-07T00:01:05;7.60;;;6.90;;
18399;SDS011;9326;49.468;11.008;2022-12-07T00:03:32;7.60;;;6.90;;
18399;SDS011;9326;49.468;11.008;2022-12-07T00:06:00;7.30;;;6.60;;
18399;SDS011;9326;49.468;11.008;2022-12-07T00:08:27;8.80;;;7.27;;
18399;SDS011;9326;49.468;11.008;2022-12-07T00:10:55;7.60;;;6.90;;
18399;SDS011;9326;49.468;11.008;2022-12-07T00:13:22;7.50;;;6.80;;
18399;SDS011;9326;49.468;11.008;2022-12-07T00:15:49;7.30;;;6.63;;
18399;SDS011;9326;49.468;11.008;2022-12-07T00:18:17;7.37;;;6.67;;
18399;SDS011;9326;49.468;11.008;2022-12-07T00:20:44;6.97;;;6.27;;
18399;SDS011;9326;49.468;11.008;2022-12-07T00:23:11;7.70;;;7.00;;
18399;SDS011;9326;49.468;11.008;2022-12-07T00:25:38;8.10;;;7.40;;
18399;SDS011;9326;49.468;11.008;2022-12-07T00:28:05;8.50;;;7.60;;
18399;SDS011;9326;49.468;11.008;2022-12-07T00:30:34;8.70;;;7.90;;
18399;SDS011;9326;49.468;11.008;2022-12-07T00:33:01;8.90;;;7.40;;
18399;SDS011;9326;49.468;11.008;2022-12-07T00:35:30;8.40;;;7.60;;
18399;SDS011;9326;49.468;11.008;2022-12-07T00:37:57;8.37;;;7.57;;
18399;SDS011;9326;49.468;11.008;2022-12-07T00:40:24;8.23;;;7.43;;
18399;SDS011;9326;49.468;11.008;2022-12-07T00:42:51;8.90;;;8.10;;
18399;SDS011;9326;49.468;11.008;2022-12-07T00:45:18;9.17;;;8.23;;
18399;SDS011;9326;49.468;11.008;2022-12-07T00:47:45;9.67;;;7.87;;
18399;SDS011;9326;49.468;11.008;2022-12-07T00:50:12;8.40;;;7.57;;
18399;SDS011;9326;49.468;11.008;2022-12-07T00:52:40;8.07;;;7.20;;
18399;SDS011;9326;49.468;11.008;2022-12-07T00:55:08;8.33;;;7.53;;
18399;SDS011;9326;49.468;11.008;2022-12-07T00:57:35;9.13;;;8.23;;
18399;SDS011;9326;49.468;11.008;2022-12-07T01:00:02;8.27;;;7.47;;
18399;SDS011;9326;49.468;11.008;2022-12-07T06:01:07;17.47;;;13.90;;
18399;SDS011;9326;49.468;11.008;2022-12-07T06:03:34;19.10;;;14.77;;
18399;SDS011;9326;49.468;11.008;2022-12-07T06:06:01;20.20;;;15.27;;
18399;SDS011;9326;49.468;11.008;2022-12-07T06:08:29;18.40;;;14.30;;
18399;SDS011;9326;49.468;11.008;2022-12-07T06:10:56;21.20;;;15.50;;
18399;SDS011;9326;49.468;11.008;2022-12-07T06:13:37;22.20;;;15.37;;
18399;SDS011;9326;49.468;11.008;2022-12-07T06:16:04;17.43;;;13.87;;
18399;SDS011;9326;49.468;11.008;2022-12-07T06:18:32;18.30;;;13.63;;
18399;SDS011;9326;49.468;11.008;2022-12-07T06:21:00;21.90;;;15.63;;
18399;SDS011;9326;49.468;11.008;2022-12-07T06:23:27;19.17;;;14.67;;
18399;SDS011;9326;49.468;11.008;2022-12-07T06:25:54;19.57;;;15.40;;
18399;SDS011;9326;49.468;11.008;2022-12-07T06:28:21;21.17;;;15.73;;
18399;SDS011;9326;49.468;11.008;2022-12-07T06:30:56;20.30;;;15.43;;
18399;SDS011;9326;49.468;11.008;2022-12-07T06:33:23;22.47;;;15.33;;
18399;SDS011;9326;49.468;11.008;2022-12-07T06:35:51;18.83;;;14.87;;
18399;SDS011;9326;49.468;11.008;2022-12-07T06:38:18;19.83;;;15.27;;
18399;SDS011;9326;49.468;11.008;2022-12-07T06:40:45;18.20;;;14.57;;
18399;SDS011;9326;49.468;11.008;2022-12-07T06:43:51;19.40;;;15.20;;
18399;SDS011;9326;49.468;11.008;2022-12-07T06:47:06;22.77;;;15.60;;
18399;SDS011;9326;49.468;11.008;2022-12-07T06:52:50;20.37;;;14.73;;
18399;SDS011;9326;49.468;11.008;2022-12-07T06:55:26;20.93;;;15.20;;
18399;SDS011;9326;49.468;11.008;2022-12-07T06:57:54;23.37;;;16.60;;
18399;SDS011;9326;49.468;11.008;2022-12-07T07:00:21;22.63;;;17.33;;
18399;SDS011;9326;49.468;11.008;2022-12-07T07:02:48;21.10;;;15.23;;
18399;SDS011;9326;49.468;11.008;2022-12-07T07:05:15;20.60;;;15.83;;
18399;SDS011;9326;49.468;11.008;2022-12-07T07:07:44;20.83;;;16.00;;
18399;SDS011;9326;49.468;11.008;2022-12-07T07:10:11;19.33;;;15.77;;
18399;SDS011;9326;49.468;11.008;2022-12-07T07:12:38;21.23;;;16.00;;
18399;SDS011;9326;49.468;11.008;2022-12-07T07:15:05;19.47;;;14.53;;
18399;SDS011;9326;49.468;11.008;2022-12-07T07:17:33;20.73;;;15.10;;
18399;SDS011;9326;49.468;11.008;2022-12-07T07:20:00;19.17;;;15.13;;
18399;SDS011;9326;49.468;11.008;2022-12-07T07:22:27;18.57;;;15.00;;
18399;SDS011;9326;49.468;11.008;2022-12-07T07:24:55;20.30;;;14.80;;
18399;SDS011;9326;49.468;11.008;2022-12-07T07:27:22;18.50;;;14.77;;
18399;SDS011;9326;49.468;11.008;2022-12-07T07:29:49;17.90;;;13.67;;
18399;SDS011;9326;49.468;11.008;2022-12-07T07:32:17;19.70;;;14.57;;
18399;SDS011;9326;49.468;11.008;2022-12-07T07:34:44;19.33;;;14.73;;
18399;SDS011;9326;49.468;11.008;2022-12-07T07:37:11;17.50;;;12.67;;
18399;SDS011;9326;49.468;11.008;2022-12-07T07:39:38;18.57;;;13.90;;
18399;SDS011;9326;49.468;11.008;2022-12-07T07:42:07;19.43;;;15.23;;
18399;SDS011;9326;49.468;11.008;2022-12-07T07:44:34;19.77;;;15.37;;
18399;SDS011;9326;49.468;11.008;2022-12-07T07:47:01;22.07;;;15.33;;
18399;SDS011;9326;49.468;11.008;2022-12-07T07:49:28;21.13;;;15.33;;
18399;SDS011;9326;49.468;11.008;2022-12-07T07:51:55;21.17;;;16.37;;
18399;SDS011;9326;49.468;11.008;2022-12-07T07:54:22;20.87;;;15.10;;
18399;SDS011;9326;49.468;11.008;2022-12-07T07:56:49;21.23;;;14.87;;
18399;SDS011;9326;49.468;11.008;2022-12-07T07:59:18;20.90;;;15.47;;
18399;SDS011;9326;49.468;11.008;2022-12-07T08:01:45;20.67;;;15.53;;
18399;SDS011;9326;49.468;11.008;2022-12-07T08:04:12;20.17;;;15.07;;
18399;SDS011;9326;49.468;11.008;2022-12-07T08:06:39;20.37;;;15.57;;
18399;SDS011;9326;49.468;11.008;2022-12-07T08:09:07;19.37;;;15.07;;
18399;SDS011;9326;49.468;11.008;2022-12-07T08:11:35;20.43;;;15.67;;
18399;SDS011;9326;49.468;11.008;2022-12-07T08:14:02;19.70;;;14.43;;
18399;SDS011;9326;49.468;11.008;2022-12-07T08:16:30;20.20;;;15.17;;
18399;SDS011;9326;49.468;11.008;2022-12-07T08:18:57;19.23;;;14.50;;
18399;SDS011;9326;49.468;11.008;2022-12-07T08:21:24;20.93;;;14.93;;
18399;SDS011;9326;49.468;11.008;2022-12-07T08:23:51;19.37;;;14.93;;
18399;SDS011;9326;49.468;11.008;2022-12-07T08:26:18;19.97;;;14.17;;
18399;SDS011;9326;49.468;11.008;2022-12-07T08:28:46;19.13;;;14.43;;
18399;SDS011;9326;49.468;11.008;2022-12-07T08:31:14;17.87;;;12.97;;
18399;SDS011;9326;49.468;11.008;2022-12-07T08:33:44;18.93;;;13.63;;
18399;SDS011;9326;49.468;11.008;2022-12-07T08:36:11;19.83;;;13.97;;
18399;SDS011;9326;49.468;11.008;2022-12-07T08:38:39;19.00;;;13.97;;
18399;SDS011;9326;49.468;11.008;2022-12-07T08:41:06;31.30;;;22.03;;
18399;SDS011;9326;49.468;11.008;2022-12-07T08:43:34;24.77;;;16.83;;
18399;SDS011;9326;49.468;11.008;2022-12-07T08:46:04;17.03;;;13.20;;
18399;SDS011;9326;49.468;11.008;2022-12-07T08:48:32;17.77;;;13.33;;
18399;SDS011;9326;49.468;11.008;2022-12-07T08:51:01;16.23;;;12.70;;
18399;SDS011;9326;49.468;11.008;2022-12-07T08:53:29;16.03;;;11.97;;
18399;SDS011;9326;49.468;11.008;2022-12-07T08:55:56;16.87;;;12.60;;
18399;SDS011;9326;49.468;11.008;2022-12-07T08:58:24;16.40;;;12.20;;
18399;SDS011;9326;49.468;11.008;2022-12-07T09:00:51;16.57;;;12.57;;
18399;SDS011;9326;49.468;11.008;2022-12-07T09:03:18;16.67;;;12.73;;
18399;SDS011;9326;49.468;11.008;2022-12-07T09:05:45;18.70;;;12.63;;
18399;SDS011;9326;49.468;11.008;2022-12-07T09:08:13;15.53;;;11.90;;
18399;SDS011;9326;49.468;11.008;2022-12-07T09:10:40;15.90;;;11.63;;
18399;SDS011;9326;49.468;11.008;2022-12-07T09:13:07;17.27;;;12.10;;
18399;SDS011;9326;49.468;11.008;2022-12-07T09:15:35;14.53;;;9.97;;
18399;SDS011;9326;49.468;11.008;2022-12-07T09:18:02;16.50;;;12.33;;
18399;SDS011;9326;49.468;11.008;2022-12-07T09:20:29;16.83;;;11.77;;
18399;SDS011;9326;49.468;11.008;2022-12-07T09:22:56;16.10;;;12.20;;
18399;SDS011;9326;49.468;11.008;2022-12-07T09:25:24;17.13;;;12.77;;
18399;SDS011;9326;49.468;11.008;2022-12-07T09:27:55;15.60;;;11.73;;
18399;SDS011;9326;49.468;11.008;2022-12-07T09:30:22;16.67;;;11.87;;
18399;SDS011;9326;49.468;11.008;2022-12-07T09:32:49;17.47;;;12.73;;
18399;SDS011;9326;49.468;11.008;2022-12-07T09:35:16;18.80;;;12.00;;
18399;SDS011;9326;49.468;11.008;2022-12-07T09:37:43;14.50;;;11.17;;
18399;SDS011;9326;49.468;11.008;2022-12-07T09:40:10;13.50;;;10.67;;
18399;SDS011;9326;49.468;11.008;2022-12-07T09:42:39;14.13;;;10.50;;
18399;SDS011;9326;49.468;11.008;2022-12-07T09:45:11;14.50;;;10.93;;
18399;SDS011;9326;49.468;11.008;2022-12-07T09:47:40;14.57;;;11.80;;
18399;SDS011;9326;49.468;11.008;2022-12-07T09:50:11;15.27;;;11.30;;
18399;SDS011;9326;49.468;11.008;2022-12-07T09:52:39;15.37;;;11.13;;
18399;SDS011;9326;49.468;11.008;2022-12-07T09:55:11;13.57;;;11.27;;
18399;SDS011;9326;49.468;11.008;2022-12-07T09:57:40;16.20;;;12.70;;
18399;SDS011;9326;49.468;11.008;2022-12-07T10:00:10;14.47;;;11.60;;
18399;SDS011;9326;49.468;11.008;2022-12-07T10:02:40;13.20;;;10.93;;
18399;SDS011;9326;49.468;11.008;2022-12-07T10:05:11;14.17;;;10.80;;
18399;SDS011;9326;49.468;11.008;2022-12-07T10:07:38;13.73;;;11.10;;
18399;SDS011;9326;49.468;11.008;2022-12-07T10:10:09;16.03;;;12.00;;
18399;SDS011;9326;49.468;11.008;2022-12-07T10:12:50;15.40;;;11.23;;
18399;SDS011;9326;49.468;11.008;2022-12-07T10:15:19;13.67;;;10.87;;
18399;SDS011;9326;49.468;11.008;2022-12-07T10:17:47;12.67;;;10.63;;
18399;SDS011;9326;49.468;11.008;2022-12-07T10:20:22;12.67;;;11.10;;
18399;SDS011;9326;49.468;11.008;2022-12-07T10:22:56;13.20;;;10.43;;
18399;SDS011;9326;49.468;11.008;2022-12-07T10:25:25;13.27;;;11.00;;
18399;SDS011;9326;49.468;11.008;2022-12-07T10:28:10;13.23;;;10.33;;
18399;SDS011;9326;49.468;11.008;2022-12-07T10:30:46;13.20;;;10.53;;
18399;SDS011;9326;49.468;11.008;2022-12-07T10:33:15;14.40;;;10.73;;
18399;SDS011;9326;49.468;11.008;2022-12-07T10:35:54;13.43;;;10.23;;
18399;SDS011;9326;49.468;11.008;2022-12-07T10:38:21;13.37;;;10.70;;
18399;SDS011;9326;49.468;11.008;2022-12-07T10:40:48;12.13;;;10.83;;
18399;SDS011;9326;49.468;11.008;2022-12-07T10:43:30;12.13;;;9.90;;
18399;SDS011;9326;49.468;11.008;2022-12-07T10:46:13;11.13;;;9.33;;
18399;SDS011;9326;49.468;11.008;2022-12-07T10:48:45;13.70;;;10.00;;
18399;SDS011;9326;49.468;11.008;2022-12-07T10:51:14;13.33;;;10.83;;
18399;SDS011;9326;49.468;11.008;2022-12-07T10:53:52;11.80;;;10.10;;
18399;SDS011;9326;49.468;11.008;2022-12-07T10:56:28;13.30;;;9.53;;
18399;SDS011;9326;49.468;11.008;2022-12-07T10:59:02;12.47;;;10.67;;
18399;SDS011;9326;49.468;11.008;2022-12-07T11:01:33;12.20;;;10.27;;
18399;SDS011;9326;49.468;11.008;2022-12-07T11:04:18;13.37;;;10.87;;
18399;SDS011;9326;49.468;11.008;2022-12-07T11:06:51;12.03;;;10.47;;
18399;SDS011;9326;49.468;11.008;2022-12-07T11:09:32;13.90;;;10.30;;
18399;SDS011;9326;49.468;11.008;2022-12-07T11:12:02;11.83;;;10.07;;
18399;SDS011;9326;49.468;11.008;2022-12-07T11:14:35;11.53;;;10.33;;
18399;SDS011;9326;49.468;11.008;2022-12-07T11:17:04;12.47;;;10.10;;
18399;SDS011;9326;49.468;11.008;2022-12-07T11:19:42;13.10;;;11.10;;
18399;SDS011;9326;49.468;11.008;2022-12-07T11:22:16;14.37;;;10.80;;
18399;SDS011;9326;49.468;11.008;2022-12-07T11:24:48;12.03;;;10.27;;
18399;SDS011;9326;49.468;11.008;2022-12-07T11:27:25;11.67;;;10.20;;
18399;SDS011;9326;49.468;11.008;2022-12-07T11:30:08;12.20;;;10.27;;
18399;SDS011;9326;49.468;11.008;2022-12-07T11:32:49;11.53;;;10.33;;
18399;SDS011;9326;49.468;11.008;2022-12-07T11:35:21;12.10;;;9.90;;
18399;SDS011;9326;49.468;11.008;2022-12-07T11:37:49;14.97;;;10.83;;
18399;SDS011;9326;49.468;11.008;2022-12-07T11:40:19;13.10;;;11.20;;
18399;SDS011;9326;49.468;11.008;2022-12-07T11:42:49;12.53;;;11.00;;
18399;SDS011;9326;49.468;11.008;2022-12-07T11:45:21;14.00;;;10.73;;
18399;SDS011;9326;49.468;11.008;2022-12-07T11:47:51;12.63;;;10.43;;
18399;SDS011;9326;49.468;11.008;2022-12-07T11:50:23;11.93;;;10.30;;
18399;SDS011;9326;49.468;11.008;2022-12-07T11:52:53;11.87;;;10.10;;
18399;SDS011;9326;49.468;11.008;2022-12-07T11:55:26;12.17;;;10.50;;
18399;SDS011;9326;49.468;11.008;2022-12-07T11:57:56;11.70;;;10.37;;
18399;SDS011;9326;49.468;11.008;2022-12-07T12:00:26;12.83;;;10.97;;
18399;SDS011;9326;49.468;11.008;2022-12-07T12:02:55;11.73;;;10.27;;
18399;SDS011;9326;49.468;11.008;2022-12-07T12:05:25;13.27;;;10.40;;
18399;SDS011;9326;49.468;11.008;2022-12-07T12:07:55;12.47;;;10.40;;
18399;SDS011;9326;49.468;11.008;2022-12-07T12:10:27;12.40;;;10.83;;
18399;SDS011;9326;49.468;11.008;2022-12-07T12:13:02;12.60;;;10.63;;
18399;SDS011;9326;49.468;11.008;2022-12-07T12:15:38;14.40;;;11.80;;
18399;SDS011;9326;49.468;11.008;2022-12-07T12:18:12;14.40;;;11.03;;
18399;SDS011;9326;49.468;11.008;2022-12-07T12:20:43;11.67;;;10.03;;
18399;SDS011;9326;49.468;11.008;2022-12-07T12:23:13;12.93;;;11.10;;
18399;SDS011;9326;49.468;11.008;2022-12-07T12:25:42;13.17;;;11.20;;
18399;SDS011;9326;49.468;11.008;2022-12-07T12:28:19;15.53;;;10.77;;
18399;SDS011;9326;49.468;11.008;2022-12-07T12:30:49;13.20;;;10.70;;
18399;SDS011;9326;49.468;11.008;2022-12-07T12:33:30;12.47;;;10.57;;
18399;SDS011;9326;49.468;11.008;2022-12-07T12:38:48;11.67;;;9.67;;
18399;SDS011;9326;49.468;11.008;2022-12-07T12:43:57;12.10;;;10.37;;
18399;SDS011;9326;49.468;11.008;2022-12-07T12:49:34;12.00;;;10.60;;
18399;SDS011;9326;49.468;11.008;2022-12-07T12:54:59;12.40;;;10.60;;
18399;SDS011;9326;49.468;11.008;2022-12-07T12:57:27;13.90;;;11.40;;
18399;SDS011;9326;49.468;11.008;2022-12-07T12:59:56;14.53;;;11.87;;
18399;SDS011;9326;49.468;11.008;2022-12-07T13:02:23;18.87;;;13.90;;
18399;SDS011;9326;49.468;11.008;2022-12-07T13:04:53;17.97;;;14.20;;
18399;SDS011;9326;49.468;11.008;2022-12-07T13:10:09;14.50;;;11.57;;
18399;SDS011;9326;49.468;11.008;2022-12-07T13:12:54;17.23;;;13.87;;
18399;SDS011;9326;49.468;11.008;2022-12-07T13:15:31;15.60;;;13.03;;
18399;SDS011;9326;49.468;11.008;2022-12-07T13:18:00;11.10;;;9.87;;
18399;SDS011;9326;49.468;11.008;2022-12-07T13:20:44;11.87;;;10.17;;
18399;SDS011;9326;49.468;11.008;2022-12-07T13:23:14;12.73;;;9.67;;
18399;SDS011;9326;49.468;11.008;2022-12-07T13:25:47;11.67;;;9.50;;
18399;SDS011;9326;49.468;11.008;2022-12-07T13:28:17;10.07;;;8.97;;
18399;SDS011;9326;49.468;11.008;2022-12-07T13:30:46;10.63;;;9.33;;
18399;SDS011;9326;49.468;11.008;2022-12-07T13:33:14;10.87;;;8.63;;
18399;SDS011;9326;49.468;11.008;2022-12-07T13:35:44;11.03;;;9.10;;
18399;SDS011;9326;49.468;11.008;2022-12-07T13:38:23;11.97;;;9.90;;
18399;SDS011;9326;49.468;11.008;2022-12-07T13:41:03;10.83;;;9.73;;
18399;SDS011;9326;49.468;11.008;2022-12-07T13:43:30;10.33;;;8.80;;
18399;SDS011;9326;49.468;11.008;2022-12-07T13:45:58;12.93;;;9.93;;
18399;SDS011;9326;49.468;11.008;2022-12-07T13:48:28;11.57;;;9.20;;
18399;SDS011;9326;49.468;11.008;2022-12-07T13:50:58;12.40;;;10.27;;
18399;SDS011;9326;49.468;11.008;2022-12-07T13:53:26;14.00;;;9.73;;
18399;SDS011;9326;49.468;11.008;2022-12-07T13:55:55;11.70;;;9.50;;
18399;SDS011;9326;49.468;11.008;2022-12-07T13:58:24;11.87;;;9.47;;
18399;SDS011;9326;49.468;11.008;2022-12-07T14:00:51;12.97;;;9.73;;
18399;SDS011;9326;49.468;11.008;2022-12-07T14:03:29;11.77;;;9.90;;
18399;SDS011;9326;49.468;11.008;2022-12-07T14:06:04;13.00;;;9.80;;
18399;SDS011;9326;49.468;11.008;2022-12-07T14:08:32;12.87;;;9.93;;
18399;SDS011;9326;49.468;11.008;2022-12-07T14:11:00;12.10;;;10.13;;
18399;SDS011;9326;49.468;11.008;2022-12-07T14:13:30;12.77;;;10.10;;
18399;SDS011;9326;49.468;11.008;2022-12-07T14:15:58;12.83;;;9.50;;
18399;SDS011;9326;49.468;11.008;2022-12-07T14:18:26;13.00;;;9.67;;
18399;SDS011;9326;49.468;11.008;2022-12-07T14:21:02;11.57;;;9.70;;
18399;SDS011;9326;49.468;11.008;2022-12-07T14:23:30;10.93;;;9.20;;
18399;SDS011;9326;49.468;11.008;2022-12-07T14:26:04;10.37;;;8.87;;
18399;SDS011;9326;49.468;11.008;2022-12-07T14:28:34;11.43;;;9.63;;
18399;SDS011;9326;49.468;11.008;2022-12-07T14:31:01;10.10;;;8.80;;
18399;SDS011;9326;49.468;11.008;2022-12-07T14:33:30;11.87;;;9.47;;
18399;SDS011;9326;49.468;11.008;2022-12-07T14:35:57;10.60;;;9.50;;
18399;SDS011;9326;49.468;11.008;2022-12-07T14:38:24;11.63;;;8.97;;
18399;SDS011;9326;49.468;11.008;2022-12-07T14:40:51;7.93;;;6.20;;
18399;SDS011;9326;49.468;11.008;2022-12-07T14:43:19;6.53;;;5.83;;
18399;SDS011;9326;49.468;11.008;2022-12-07T14:45:48;6.23;;;5.27;;
18399;SDS011;9326;49.468;11.008;2022-12-07T14:48:15;6.73;;;6.00;;
18399;SDS011;9326;49.468;11.008;2022-12-07T14:50:44;8.20;;;5.80;;
18399;SDS011;9326;49.468;11.008;2022-12-07T14:53:12;7.97;;;6.70;;
18399;SDS011;9326;49.468;11.008;2022-12-07T14:55:40;8.00;;;7.20;;
18399;SDS011;9326;49.468;11.008;2022-12-07T14:58:10;9.37;;;7.07;;
18399;SDS011;9326;49.468;11.008;2022-12-07T15:00:38;15.60;;;13.10;;
18399;SDS011;9326;49.468;11.008;2022-12-07T15:03:07;12.27;;;10.20;;
18399;SDS011;9326;49.468;11.008;2022-12-07T15:05:34;13.47;;;10.03;;
18399;SDS011;9326;49.468;11.008;2022-12-07T15:08:01;16.00;;;13.27;;
18399;SDS011;9326;49.468;11.008;2022-12-07T15:10:29;17.23;;;12.57;;
18399;SDS011;9326;49.468;11.008;2022-12-07T15:12:57;17.77;;;12.13;;
18399;SDS011;9326;49.468;11.008;2022-12-07T15:15:45;16.97;;;12.23;;
18399;SDS011;9326;49.468;11.008;2022-12-07T15:18:15;15.97;;;11.37;;
18399;SDS011;9326;49.468;11.008;2022-12-07T15:20:43;17.33;;;13.70;;
18399;SDS011;9326;49.468;11.008;2022-12-07T15:23:10;17.80;;;12.60;;
18399;SDS011;9326;49.468;11.008;2022-12-07T15:25:40;18.47;;;13.73;;
18399;SDS011;9326;49.468;11.008;2022-12-07T15:28:07;18.60;;;14.13;;
18399;SDS011;9326;49.468;11.008;2022-12-07T15:30:34;20.97;;;14.60;;
18399;SDS011;9326;49.468;11.008;2022-12-07T15:33:01;19.73;;;15.53;;
18399;SDS011;9326;49.468;11.008;2022-12-07T15:35:29;23.13;;;15.73;;
18399;SDS011;9326;49.468;11.008;2022-12-07T15:37:56;21.43;;;15.47;;
18399;SDS011;9326;49.468;11.008;2022-12-07T15:40:23;20.13;;;15.13;;
18399;SDS011;9326;49.468;11.008;2022-12-07T15:42:51;19.40;;;14.13;;
18399;SDS011;9326;49.468;11.008;2022-12-07T15:45:19;20.33;;;13.40;;
18399;SDS011;9326;49.468;11.008;2022-12-07T15:47:45;19.13;;;14.70;;
18399;SDS011;9326;49.468;11.008;2022-12-07T15:50:13;18.03;;;13.57;;
18399;SDS011;9326;49.468;11.008;2022-12-07T15:52:42;22.10;;;15.03;;
18399;SDS011;9326;49.468;11.008;2022-12-07T15:55:10;18.03;;;14.17;;
18399;SDS011;9326;49.468;11.008;2022-12-07T15:57:37;17.90;;;13.83;;
18399;SDS011;9326;49.468;11.008;2022-12-07T16:00:05;18.00;;;13.63;;
18399;SDS011;9326;49.468;11.008;2022-12-07T16:02:33;18.83;;;14.53;;
18399;SDS011;9326;49.468;11.008;2022-12-07T16:05:00;19.80;;;14.70;;
18399;SDS011;9326;49.468;11.008;2022-12-07T16:07:27;20.20;;;14.83;;
18399;SDS011;9326;49.468;11.008;2022-12-07T16:09:56;19.33;;;14.30;;
18399;SDS011;9326;49.468;11.008;2022-12-07T16:12:23;19.20;;;14.37;;
18399;SDS011;9326;49.468;11.008;2022-12-07T16:14:52;17.73;;;14.47;;
18399;SDS011;9326;49.468;11.008;2022-12-07T16:17:19;19.57;;;14.30;;
18399;SDS011;9326;49.468;11.008;2022-12-07T16:19:46;18.73;;;13.57;;
18399;SDS011;9326;49.468;11.008;2022-12-07T16:22:14;18.30;;;14.00;;
18399;SDS011;9326;49.468;11.008;2022-12-07T16:24:41;19.77;;;14.73;;
18399;SDS011;9326;49.468;11.008;2022-12-07T16:27:09;18.17;;;13.80;;
18399;SDS011;9326;49.468;11.008;2022-12-07T16:29:36;15.67;;;12.93;;
18399;SDS011;9326;49.468;11.008;2022-12-07T16:32:04;15.50;;;13.00;;
18399;SDS011;9326;49.468;11.008;2022-12-07T16:34:31;17.47;;;14.10;;
18399;SDS011;9326;49.468;11.008;2022-12-07T16:36:58;16.50;;;13.50;;
18399;SDS011;9326;49.468;11.008;2022-12-07T16:39:25;17.03;;;13.17;;
18399;SDS011;9326;49.468;11.008;2022-12-07T16:41:52;17.87;;;14.00;;
18399;SDS011;9326;49.468;11.008;2022-12-07T16:44:21;17.87;;;14.10;;
18399;SDS011;9326;49.468;11.008;2022-12-07T16:46:48;19.23;;;14.77;;
18399;SDS011;9326;49.468;11.008;2022-12-07T16:49:15;19.33;;;14.17;;
18399;SDS011;9326;49.468;11.008;2022-12-07T16:51:43;19.30;;;14.33;;
18399;SDS011;9326;49.468;11.008;2022-12-07T16:54:11;19.17;;;15.03;;
18399;SDS011;9326;49.468;11.008;2022-12-07T16:56:38;19.53;;;14.97;;
18399;SDS011;9326;49.468;11.008;2022-12-07T16:59:06;19.27;;;14.70;;
18399;SDS011;9326;49.468;11.008;2022-12-07T17:01:34;18.87;;;14.23;;
18399;SDS011;9326;49.468;11.008;2022-12-07T17:04:02;22.83;;;17.20;;
18399;SDS011;9326;49.468;11.008;2022-12-07T17:06:29;23.73;;;15.80;;
18399;SDS011;9326;49.468;11.008;2022-12-07T17:08:57;30.20;;;21.60;;
18399;SDS011;9326;49.468;11.008;2022-12-07T17:11:25;23.73;;;17.43;;
18399;SDS011;9326;49.468;11.008;2022-12-07T17:13:52;34.60;;;24.10;;
18399;SDS011;9326;49.468;11.008;2022-12-07T17:16:39;30.97;;;22.37;;
18399;SDS011;9326;49.468;11.008;2022-12-07T17:19:06;33.77;;;23.93;;
18399;SDS011;9326;49.468;11.008;2022-12-07T17:21:34;33.50;;;23.33;;
18399;SDS011;9326;49.468;11.008;2022-12-07T17:24:02;27.53;;;20.83;;
18399;SDS011;9326;49.468;11.008;2022-12-07T17:26:30;38.27;;;30.27;;
18399;SDS011;9326;49.468;11.008;2022-12-07T17:28:57;51.30;;;38.17;;
18399;SDS011;9326;49.468;11.008;2022-12-07T17:31:24;57.67;;;36.53;;
18399;SDS011;9326;49.468;11.008;2022-12-07T17:33:53;31.00;;;22.57;;
18399;SDS011;9326;49.468;11.008;2022-12-07T17:36:21;27.47;;;21.13;;
18399;SDS011;9326;49.468;11.008;2022-12-07T17:38:48;26.43;;;18.70;;
18399;SDS011;9326;49.468;11.008;2022-12-07T17:41:16;29.80;;;21.10;;
18399;SDS011;9326;49.468;11.008;2022-12-07T17:44:05;25.37;;;19.07;;
18399;SDS011;9326;49.468;11.008;2022-12-07T17:46:32;26.10;;;18.80;;
18399;SDS011;9326;49.468;11.008;2022-12-07T17:49:01;65.00;;;42.80;;
18399;SDS011;9326;49.468;11.008;2022-12-07T17:51:28;51.83;;;33.37;;
18399;SDS011;9326;49.468;11.008;2022-12-07T17:54:13;41.80;;;28.93;;
18399;SDS011;9326;49.468;11.008;2022-12-07T17:56:40;33.80;;;26.23;;
18399;SDS011;9326;49.468;11.008;2022-12-07T17:59:07;29.10;;;22.77;;
18399;SDS011;9326;49.468;11.008;2022-12-07T18:01:34;27.37;;;18.80;;
18399;SDS011;9326;49.468;11.008;2022-12-07T18:04:03;24.70;;;19.13;;
18399;SDS011;9326;49.468;11.008;2022-12-07T18:06:30;25.47;;;19.53;;
18399;SDS011;9326;49.468;11.008;2022-12-07T18:08:58;23.60;;;18.93;;
18399;SDS011;9326;49.468;11.008;2022-12-07T18:11:25;27.50;;;20.07;;
18399;SDS011;9326;49.468;11.008;2022-12-07T18:13:52;31.47;;;20.97;;
18399;SDS011;9326;49.468;11.008;2022-12-07T18:16:20;32.50;;;21.37;;
18399;SDS011;9326;49.468;11.008;2022-12-07T18:18:47;35.40;;;24.50;;
18399;SDS011;9326;49.468;11.008;2022-12-07T18:21:19;35.17;;;23.87;;
18399;SDS011;9326;49.468;11.008;2022-12-07T18:23:47;41.67;;;29.50;;
18399;SDS011;9326;49.468;11.008;2022-12-07T18:26:15;32.00;;;22.23;;
18399;SDS011;9326;49.468;11.008;2022-12-07T18:28:43;30.23;;;21.97;;
18399;SDS011;9326;49.468;11.008;2022-12-07T18:31:10;35.57;;;24.77;;
18399;SDS011;9326;49.468;11.008;2022-12-07T18:33:38;35.07;;;25.80;;
18399;SDS011;9326;49.468;11.008;2022-12-07T18:36:05;31.57;;;22.50;;
18399;SDS011;9326;49.468;11.008;2022-12-07T18:38:34;26.23;;;20.20;;
18399;SDS011;9326;49.468;11.008;2022-12-07T18:41:02;28.13;;;20.73;;
18399;SDS011;9326;49.468;11.008;2022-12-07T18:43:29;28.33;;;21.37;;
18399;SDS011;9326;49.468;11.008;2022-12-07T18:45:56;26.53;;;20.47;;
18399;SDS011;9326;49.468;11.008;2022-12-07T18:48:23;25.33;;;17.33;;
18399;SDS011;9326;49.468;11.008;2022-12-07T18:50:57;50.00;;;30.87;;
18399;SDS011;9326;49.468;11.008;2022-12-07T18:53:25;28.37;;;20.23;;
18399;SDS011;9326;49.468;11.008;2022-12-07T18:56:00;26.17;;;20.33;;
18399;SDS011;9326;49.468;11.008;2022-12-07T18:58:27;29.33;;;23.07;;
18399;SDS011;9326;49.468;11.008;2022-12-07T19:00:54;24.03;;;18.03;;
18399;SDS011;9326;49.468;11.008;2022-12-07T19:03:21;28.70;;;21.17;;
18399;SDS011;9326;49.468;11.008;2022-12-07T19:05:48;22.03;;;16.10;;
18399;SDS011;9326;49.468;11.008;2022-12-07T19:08:16;23.60;;;17.47;;
18399;SDS011;9326;49.468;11.008;2022-12-07T19:10:43;22.90;;;18.00;;
18399;SDS011;9326;49.468;11.008;2022-12-07T19:13:11;23.80;;;18.00;;
18399;SDS011;9326;49.468;11.008;2022-12-07T19:15:38;25.80;;;18.37;;
18399;SDS011;9326;49.468;11.008;2022-12-07T19:18:06;22.07;;;17.00;;
18399;SDS011;9326;49.468;11.008;2022-12-07T19:20:33;24.03;;;18.60;;
18399;SDS011;9326;49.468;11.008;2022-12-07T19:23:00;24.60;;;17.80;;
18399;SDS011;9326;49.468;11.008;2022-12-07T19:25:27;22.77;;;17.10;;
18399;SDS011;9326;49.468;11.008;2022-12-07T19:27:54;24.10;;;16.60;;
18399;SDS011;9326;49.468;11.008;2022-12-07T19:30:23;28.57;;;19.57;;
18399;SDS011;9326;49.468;11.008;2022-12-07T19:32:50;25.13;;;18.97;;
18399;SDS011;9326;49.468;11.008;2022-12-07T19:35:17;22.47;;;17.40;;
18399;SDS011;9326;49.468;11.008;2022-12-07T19:37:44;21.80;;;15.73;;
18399;SDS011;9326;49.468;11.008;2022-12-07T19:40:11;19.23;;;15.20;;
18399;SDS011;9326;49.468;11.008;2022-12-07T19:42:39;18.17;;;15.07;;
18399;SDS011;9326;49.468;11.008;2022-12-07T19:45:06;20.83;;;15.97;;
18399;SDS011;9326;49.468;11.008;2022-12-07T19:47:34;20.60;;;16.47;;
18399;SDS011;9326;49.468;11.008;2022-12-07T19:50:01;22.00;;;17.03;;
18399;SDS011;9326;49.468;11.008;2022-12-07T19:52:29;26.07;;;17.40;;
18399;SDS011;9326;49.468;11.008;2022-12-07T19:54:56;25.67;;;17.63;;